createdAt,value
2022-10-19T00:00:49.089Z,96.47
2022-10-19T00:03:20.696Z,94.76
2022-10-19T00:05:50.351Z,93.89
2022-10-19T00:08:17.583Z,93.69
2022-10-19T00:10:44.698Z,93.53
2022-10-19T00:13:11.834Z,94.91
2022-10-19T00:15:40.443Z,95.12
2022-10-19T00:18:08.557Z,95.85
2022-10-19T00:20:36.941Z,95.18
2022-10-19T00:23:04.471Z,95.19
2022-10-19T00:25:31.955Z,96.43
2022-10-19T00:27:59.074Z,96.83
2022-10-19T00:30:26.176Z,96.56
2022-10-19T00:32:53.296Z,96.15
2022-10-19T00:35:20.403Z,95.97
2022-10-19T00:37:47.517Z,96.21
2022-10-19T00:40:14.623Z,97.02
2022-10-19T00:42:41.798Z,97.93
2022-10-19T00:45:15.667Z,98.26
2022-10-19T00:47:44.868Z,98.97
2022-10-19T00:50:14.302Z,100.00
2022-10-19T00:52:41.859Z,100.00
2022-10-19T00:55:10.810Z,100.00
2022-10-19T00:57:38.312Z,100.00
2022-10-19T01:00:07.260Z,100.00
2022-10-19T01:02:35.342Z,100.00
2022-10-19T01:05:03.935Z,100.00
2022-10-19T01:07:31.728Z,100.00
2022-10-19T01:10:00.195Z,100.00
2022-10-19T01:13:18.123Z,100.00
2022-10-19T01:16:23.252Z,100.00
2022-10-19T01:18:58.003Z,100.00
2022-10-19T01:21:29.017Z,100.00
2022-10-19T01:24:18.010Z,100.00
2022-10-19T01:27:05.376Z,100.00
2022-10-19T01:30:03.100Z,100.00
2022-10-19T01:32:57.076Z,100.00
2022-10-19T01:35:43.590Z,99.82
2022-10-19T01:38:17.639Z,98.90
2022-10-19T01:40:55.254Z,97.69
2022-10-19T01:43:31.207Z,97.84
2022-10-19T01:46:09.253Z,98.42
2022-10-19T01:48:40.970Z,98.82
2022-10-19T01:51:17.326Z,98.77
2022-10-19T01:53:49.480Z,99.54
2022-10-19T01:56:19.926Z,100.00
2022-10-19T01:58:48.775Z,100.00
2022-10-19T02:01:19.860Z,100.00
2022-10-19T02:03:50.131Z,100.00
2022-10-19T02:06:18.282Z,100.00
2022-10-19T02:08:48.815Z,100.00
2022-10-19T02:11:17.880Z,100.00
2022-10-19T02:13:48.943Z,100.00
2022-10-19T02:16:25.086Z,100.00
2022-10-19T02:18:54.939Z,100.00
2022-10-19T02:21:22.549Z,100.00
2022-10-19T02:23:51.906Z,100.00
2022-10-19T02:26:22.140Z,100.00
2022-10-19T02:28:50.427Z,100.00
2022-10-19T02:31:17.670Z,100.00
2022-10-19T02:33:45.027Z,100.00
2022-10-19T02:36:12.539Z,100.00
2022-10-19T02:38:40.784Z,100.00
2022-10-19T02:41:23.037Z,100.00
2022-10-19T02:43:56.942Z,100.00
2022-10-19T02:46:31.921Z,100.00
2022-10-19T02:49:01.054Z,100.00
2022-10-19T02:51:36.932Z,100.00
2022-10-19T02:54:06.090Z,100.00
2022-10-19T02:56:35.189Z,100.00
2022-10-19T02:59:03.344Z,100.00
2022-10-19T03:01:30.526Z,100.00
2022-10-19T03:03:57.647Z,100.00
2022-10-19T03:06:24.853Z,100.00
2022-10-19T03:08:52.026Z,99.98
2022-10-19T03:11:19.221Z,100.00
2022-10-19T03:16:18.458Z,100.00
2022-10-19T03:18:48.930Z,100.00
2022-10-19T03:21:16.382Z,100.00
2022-10-19T03:23:43.540Z,100.00
2022-10-19T03:26:15.022Z,100.00
2022-10-19T03:28:42.526Z,100.00
2022-10-19T03:31:09.786Z,100.00
2022-10-19T03:33:36.899Z,100.00
2022-10-19T03:36:24.357Z,100.00
2022-10-19T03:38:53.538Z,100.00
2022-10-19T03:41:22.082Z,100.00
2022-10-19T03:43:49.436Z,100.00
2022-10-19T03:46:16.883Z,100.00
2022-10-19T03:48:44.114Z,100.00
2022-10-19T03:51:16.912Z,100.00
2022-10-19T03:53:45.314Z,100.00
2022-10-19T03:56:15.031Z,100.00
2022-10-19T03:58:43.987Z,100.00
2022-10-19T04:01:14.491Z,100.00
2022-10-19T04:03:42.104Z,100.00
2022-10-19T04:06:14.817Z,100.00
2022-10-19T04:08:44.590Z,100.00
2022-10-19T04:11:14.867Z,100.00
2022-10-19T04:13:41.977Z,100.00
2022-10-19T04:16:13.278Z,100.00
2022-10-19T04:18:40.479Z,100.00
2022-10-19T04:21:07.658Z,100.00
2022-10-19T04:23:36.106Z,100.00
2022-10-19T04:26:07.962Z,100.00
2022-10-19T04:28:35.180Z,100.00
2022-10-19T04:31:06.208Z,100.00
2022-10-19T04:33:34.414Z,100.00
2022-10-19T04:36:07.309Z,100.00
2022-10-19T04:38:35.063Z,100.00
2022-10-19T04:41:08.259Z,100.00
2022-10-19T04:43:36.070Z,100.00
2022-10-19T04:46:09.212Z,100.00
2022-10-19T04:48:37.823Z,100.00
2022-10-19T04:51:05.339Z,100.00
2022-10-19T04:53:33.057Z,100.00
2022-10-19T04:56:00.562Z,100.00
2022-10-19T04:58:27.642Z,100.00
2022-10-19T05:00:54.809Z,100.00
2022-10-19T05:03:21.911Z,93.96
2022-10-19T05:05:49.754Z,87.37
2022-10-19T05:08:17.203Z,85.43
2022-10-19T05:10:47.659Z,85.73
2022-10-19T05:13:14.983Z,85.75
2022-10-19T05:15:42.142Z,84.41
2022-10-19T05:18:09.232Z,83.12
2022-10-19T05:20:36.347Z,81.97
2022-10-19T05:23:06.426Z,81.25
2022-10-19T05:25:34.595Z,80.97
2022-10-19T05:28:01.683Z,80.66
2022-10-19T05:30:28.882Z,80.17
2022-10-19T05:32:56.038Z,80.19
2022-10-19T05:35:23.165Z,79.98
2022-10-19T05:37:55.154Z,80.52
2022-10-19T05:40:22.271Z,82.85
2022-10-19T05:42:49.327Z,81.88
2022-10-19T05:45:16.421Z,78.59
2022-10-19T05:47:43.502Z,82.12
2022-10-19T05:50:10.577Z,86.78
2022-10-19T05:52:37.666Z,89.34
2022-10-19T05:55:05.372Z,91.82
2022-10-19T05:57:33.192Z,93.47
2022-10-19T06:00:00.603Z,94.00
2022-10-19T06:02:27.699Z,95.24
2022-10-19T06:04:54.820Z,95.72
2022-10-19T06:07:21.885Z,96.30
2022-10-19T06:09:48.979Z,96.51
2022-10-19T06:12:20.449Z,96.61
2022-10-19T06:14:52.816Z,97.22
2022-10-19T06:17:19.908Z,97.52
2022-10-19T06:19:47.018Z,97.13
2022-10-19T06:22:14.151Z,96.91
2022-10-19T06:24:41.237Z,96.91
2022-10-19T06:27:08.388Z,96.51
2022-10-19T06:29:35.680Z,95.91
2022-10-19T06:32:03.666Z,95.34
2022-10-19T06:34:30.974Z,95.33
2022-10-19T06:36:58.211Z,95.26
2022-10-19T06:39:25.356Z,95.32
2022-10-19T06:41:52.459Z,95.11
2022-10-19T06:44:19.747Z,94.38
2022-10-19T06:46:46.952Z,94.21
2022-10-19T06:49:14.709Z,94.12
2022-10-19T06:51:41.946Z,94.10
2022-10-19T06:54:09.263Z,93.70
2022-10-19T06:56:36.470Z,93.33
2022-10-19T06:59:03.682Z,92.64
2022-10-19T07:01:31.085Z,92.38
2022-10-19T07:03:58.214Z,91.54
2022-10-19T07:06:26.914Z,91.00
2022-10-19T07:08:54.046Z,90.60
2022-10-19T07:11:22.424Z,90.11
2022-10-19T07:13:50.394Z,89.65
2022-10-19T07:16:20.968Z,89.45
2022-10-19T07:18:50.783Z,88.32
2022-10-19T07:21:18.951Z,88.23
2022-10-19T07:23:47.415Z,87.96
2022-10-19T07:26:27.417Z,87.56
2022-10-19T07:28:57.838Z,87.08
2022-10-19T07:31:26.679Z,86.95
2022-10-19T07:33:56.135Z,85.75
2022-10-19T07:36:24.638Z,84.97
2022-10-19T07:38:52.289Z,84.92
2022-10-19T07:41:21.807Z,84.01
2022-10-19T07:43:51.136Z,82.76
2022-10-19T07:46:25.352Z,82.79
2022-10-19T07:48:53.383Z,82.45
2022-10-19T07:51:21.670Z,82.02
2022-10-19T07:53:49.129Z,81.00
2022-10-19T07:56:21.497Z,80.60
2022-10-19T07:58:50.701Z,80.33
2022-10-19T08:01:23.899Z,80.25
2022-10-19T08:06:42.550Z,78.62
2022-10-19T08:09:11.464Z,78.88
2022-10-19T08:11:42.791Z,78.76
2022-10-19T08:14:09.912Z,79.57
2022-10-19T08:16:44.155Z,78.41
2022-10-19T08:19:13.492Z,77.84
2022-10-19T08:21:43.607Z,77.72
2022-10-19T08:24:13.290Z,77.01
2022-10-19T08:26:41.054Z,77.77
2022-10-19T08:29:19.610Z,77.27
2022-10-19T08:31:48.193Z,76.93
2022-10-19T08:34:16.330Z,76.27
2022-10-19T08:36:43.543Z,76.01
2022-10-19T08:39:12.650Z,76.36
2022-10-19T08:41:39.739Z,74.65
2022-10-19T08:44:15.848Z,75.17
2022-10-19T08:47:23.310Z,76.23
2022-10-19T08:49:51.401Z,76.44
2022-10-19T08:52:29.586Z,74.96
2022-10-19T08:55:08.985Z,74.75
2022-10-19T08:58:13.510Z,74.62
2022-10-19T09:00:50.142Z,73.84
2022-10-19T09:03:37.827Z,72.97
2022-10-19T09:06:34.198Z,73.68
2022-10-19T09:09:01.439Z,73.51
2022-10-19T09:11:38.508Z,72.26
2022-10-19T09:14:14.900Z,71.22
2022-10-19T09:16:42.720Z,71.98
2022-10-19T09:19:25.597Z,71.97
2022-10-19T09:21:57.363Z,71.75
2022-10-19T09:24:29.765Z,71.86
2022-10-19T09:27:00.801Z,70.19
2022-10-19T09:29:40.086Z,70.02
2022-10-19T09:32:33.538Z,69.46
2022-10-19T09:35:22.282Z,68.92
2022-10-19T09:37:51.198Z,69.06
2022-10-19T09:40:25.284Z,69.75
2022-10-19T09:42:57.346Z,68.47
2022-10-19T09:45:47.774Z,68.12
2022-10-19T09:48:23.811Z,68.70
2022-10-19T09:51:00.128Z,67.71
2022-10-19T09:53:29.218Z,67.80
2022-10-19T09:56:02.876Z,66.15
2022-10-19T09:58:32.946Z,67.67
2022-10-19T10:01:02.477Z,67.15
2022-10-19T10:03:43.566Z,66.09
2022-10-19T10:06:15.296Z,66.18
2022-10-19T10:08:48.518Z,65.41
2022-10-19T10:11:22.706Z,63.96
2022-10-19T10:13:52.786Z,65.65
2022-10-19T10:16:24.850Z,65.22
2022-10-19T10:18:56.913Z,64.08
2022-10-19T10:21:27.038Z,65.48
2022-10-19T10:24:02.976Z,63.36
2022-10-19T10:26:30.149Z,63.68
2022-10-19T10:29:00.662Z,62.12
2022-10-19T10:31:30.157Z,62.78
2022-10-19T10:34:10.963Z,63.00
2022-10-19T10:36:53.635Z,61.77
2022-10-19T10:39:20.852Z,61.25
2022-10-19T10:41:49.021Z,60.67
2022-10-19T10:44:26.487Z,61.18
2022-10-19T10:47:00.115Z,61.11
2022-10-19T10:49:35.551Z,60.85
2022-10-19T10:52:10.746Z,60.70
2022-10-19T10:54:38.811Z,60.17
2022-10-19T10:57:16.647Z,60.48
2022-10-19T10:59:51.881Z,59.32
2022-10-19T11:02:27.797Z,58.58
2022-10-19T11:05:11.742Z,58.96
2022-10-19T11:07:44.157Z,60.58
2022-10-19T11:10:26.666Z,58.64
2022-10-19T11:13:18.313Z,58.94
2022-10-19T11:16:06.699Z,58.98
2022-10-19T11:18:46.063Z,58.16
2022-10-19T11:21:24.063Z,56.22
2022-10-19T11:24:16.526Z,55.89
2022-10-19T11:27:18.407Z,56.51
2022-10-19T11:29:57.625Z,56.85
2022-10-19T11:32:35.112Z,57.06
2022-10-19T11:35:17.432Z,55.38
2022-10-19T11:38:17.398Z,56.53
2022-10-19T11:41:26.403Z,55.69
2022-10-19T11:44:20.753Z,55.46
2022-10-19T11:47:14.058Z,54.85
2022-10-19T11:49:50.255Z,56.13
2022-10-19T11:52:46.278Z,55.21
2022-10-19T11:55:40.809Z,57.30
2022-10-19T11:58:38.102Z,54.89
2022-10-19T12:01:23.722Z,56.31
2022-10-19T12:04:11.010Z,55.06
2022-10-19T12:06:43.826Z,54.38
2022-10-19T12:09:35.425Z,52.98
2022-10-19T12:12:19.522Z,56.18
2022-10-19T12:14:51.607Z,54.19
2022-10-19T12:17:26.399Z,54.10
2022-10-19T12:19:59.501Z,53.66
2022-10-19T12:22:28.317Z,55.15
2022-10-19T12:24:59.669Z,52.86
2022-10-19T12:27:47.672Z,51.61
2022-10-19T12:30:23.563Z,51.79
2022-10-19T12:33:14.606Z,50.75
2022-10-19T12:35:59.639Z,51.82
2022-10-19T12:38:40.892Z,53.66
2022-10-19T12:42:00.947Z,53.34
2022-10-19T12:44:39.791Z,52.96
2022-10-19T12:47:11.852Z,53.41
2022-10-19T12:49:45.786Z,53.69
2022-10-19T12:52:15.275Z,51.60
2022-10-19T12:54:43.970Z,53.02
2022-10-19T12:57:29.959Z,53.72
2022-10-19T13:00:04.241Z,52.89
2022-10-19T13:02:35.597Z,52.35
2022-10-19T13:05:04.358Z,51.96
2022-10-19T13:07:36.056Z,51.88
2022-10-19T13:10:06.894Z,51.64
2022-10-19T13:12:46.286Z,52.27
2022-10-19T13:15:39.384Z,52.37
2022-10-19T13:18:13.971Z,50.50
2022-10-19T13:20:50.268Z,52.32
2022-10-19T13:23:17.649Z,51.17
2022-10-19T13:25:44.814Z,50.00
2022-10-19T13:28:17.790Z,49.16
2022-10-19T13:30:44.878Z,49.25
2022-10-19T13:33:28.435Z,50.08
2022-10-19T13:35:58.325Z,50.80
2022-10-19T13:38:26.327Z,49.60
2022-10-19T13:41:25.559Z,50.03
2022-10-19T13:44:01.723Z,50.28
2022-10-19T13:46:28.780Z,49.69
2022-10-19T13:48:58.701Z,48.37
2022-10-19T13:51:46.634Z,48.26
2022-10-19T13:54:37.882Z,48.78
2022-10-19T13:57:24.002Z,49.02
2022-10-19T14:00:15.756Z,49.00
2022-10-19T14:03:22.429Z,50.51
2022-10-19T14:06:13.256Z,49.08
2022-10-19T14:09:21.493Z,47.99
2022-10-19T14:11:52.652Z,49.12
2022-10-19T14:14:24.253Z,48.46
2022-10-19T14:17:03.065Z,48.62
2022-10-19T14:19:43.710Z,48.23
2022-10-19T14:22:37.231Z,47.66
2022-10-19T14:25:16.120Z,47.04
2022-10-19T14:27:43.571Z,47.71
2022-10-19T14:30:25.458Z,46.88
2022-10-19T14:32:56.836Z,48.22
2022-10-19T14:35:38.273Z,48.80
2022-10-19T14:38:08.481Z,48.24
2022-10-19T14:40:41.068Z,48.13
2022-10-19T14:43:31.582Z,49.00
2022-10-19T14:46:07.558Z,48.70
2022-10-19T14:48:36.540Z,48.83
2022-10-19T14:51:09.941Z,49.01
2022-10-19T14:53:42.501Z,50.19
2022-10-19T14:56:21.183Z,50.50
2022-10-19T14:59:02.660Z,51.44
2022-10-19T15:01:30.058Z,51.02
2022-10-19T15:03:57.352Z,52.07
2022-10-19T15:06:29.983Z,52.58
2022-10-19T15:09:03.830Z,52.34
2022-10-19T15:11:37.071Z,53.74
2022-10-19T15:14:12.007Z,53.00
2022-10-19T15:16:39.115Z,53.55
2022-10-19T15:19:18.318Z,54.33
2022-10-19T15:22:05.544Z,54.66
2022-10-19T15:24:32.714Z,54.94
2022-10-19T15:27:19.216Z,55.47
2022-10-19T15:29:57.019Z,55.55
2022-10-19T15:32:29.566Z,55.46
2022-10-19T15:34:56.742Z,54.98
2022-10-19T15:39:56.906Z,56.23
2022-10-19T15:42:36.694Z,56.36
2022-10-19T15:45:24.986Z,57.44
2022-10-19T15:48:20.930Z,57.96
2022-10-19T15:50:50.335Z,58.14
2022-10-19T15:53:18.990Z,58.83
2022-10-19T15:55:46.334Z,59.24
2022-10-19T15:58:14.263Z,59.32
2022-10-19T16:00:41.891Z,60.14
2022-10-19T16:03:09.209Z,59.84
2022-10-19T16:05:36.638Z,60.45
2022-10-19T16:10:37.279Z,61.55
2022-10-19T16:13:04.510Z,62.19
2022-10-19T16:15:31.659Z,62.72
2022-10-19T16:18:00.005Z,62.99
2022-10-19T16:20:29.185Z,63.71
2022-10-19T16:22:56.944Z,64.02
2022-10-19T16:25:24.411Z,64.58
2022-10-19T16:27:51.579Z,64.20
2022-10-19T16:30:18.865Z,64.09
2022-10-19T16:32:48.531Z,64.91
2022-10-19T16:35:15.806Z,65.49
2022-10-19T16:37:42.993Z,65.60
2022-10-19T16:40:10.454Z,66.24
2022-10-19T16:42:37.910Z,66.53
2022-10-19T16:45:05.561Z,67.34
2022-10-19T16:47:32.687Z,67.10
2022-10-19T16:50:01.510Z,67.77
2022-10-19T16:52:31.386Z,68.24
2022-10-19T16:54:59.719Z,68.92
2022-10-19T16:57:26.918Z,69.55
2022-10-19T16:59:54.397Z,69.55
2022-10-19T17:02:22.210Z,69.90
2022-10-19T17:04:49.347Z,70.22
2022-10-19T17:07:16.742Z,70.67
2022-10-19T17:09:44.034Z,70.78
2022-10-19T17:12:11.697Z,71.21
2022-10-19T17:14:40.834Z,71.30
2022-10-19T17:17:09.513Z,71.37
2022-10-19T17:19:37.334Z,70.91
2022-10-19T17:22:05.410Z,70.76
2022-10-19T17:24:32.754Z,70.46
2022-10-19T17:27:02.814Z,70.97
2022-10-19T17:29:30.049Z,71.32
2022-10-19T17:31:58.062Z,71.70
2022-10-19T17:34:25.372Z,72.41
2022-10-19T17:36:52.472Z,72.22
2022-10-19T17:39:25.733Z,72.47
2022-10-19T17:42:01.204Z,72.86
2022-10-19T17:44:29.954Z,73.17
2022-10-19T17:46:57.129Z,74.55
2022-10-19T17:49:24.306Z,75.40
2022-10-19T17:51:53.183Z,76.10
2022-10-19T17:54:20.598Z,75.63
2022-10-19T17:56:47.754Z,75.12
2022-10-19T17:59:15.016Z,74.86
2022-10-19T18:01:42.159Z,74.67
2022-10-19T18:04:09.346Z,74.51
2022-10-19T18:06:38.199Z,73.46
2022-10-19T18:09:08.130Z,74.22
2022-10-19T18:11:43.734Z,76.54
2022-10-19T18:14:12.487Z,77.00
2022-10-19T18:16:45.449Z,77.32
2022-10-19T18:19:16.911Z,76.21
2022-10-19T18:21:46.035Z,75.70
2022-10-19T18:24:19.181Z,75.96
2022-10-19T18:26:47.997Z,76.22
2022-10-19T18:29:17.815Z,75.96
2022-10-19T18:31:49.054Z,75.87
2022-10-19T18:34:16.283Z,75.73
2022-10-19T18:36:44.254Z,75.93
2022-10-19T18:39:13.312Z,76.35
2022-10-19T18:41:41.287Z,76.84
2022-10-19T18:44:11.405Z,76.92
2022-10-19T18:46:38.968Z,76.85
2022-10-19T18:49:08.346Z,77.37
2022-10-19T18:51:36.046Z,78.47
2022-10-19T18:54:03.621Z,79.62
2022-10-19T18:56:30.793Z,79.67
2022-10-19T18:58:57.887Z,80.11
2022-10-19T19:01:27.232Z,81.03
2022-10-19T19:04:04.294Z,81.29
2022-10-19T19:06:33.053Z,80.75
2022-10-19T19:09:02.082Z,80.46
2022-10-19T19:11:35.848Z,80.07
2022-10-19T19:14:13.739Z,79.99
2022-10-19T19:16:43.246Z,79.20
2022-10-19T19:19:13.240Z,78.00
2022-10-19T19:21:43.836Z,78.21
2022-10-19T19:24:17.104Z,79.25
2022-10-19T19:26:48.285Z,78.89
2022-10-19T19:29:16.694Z,79.89
2022-10-19T19:31:44.234Z,80.13
2022-10-19T19:34:11.710Z,79.83
2022-10-19T19:39:15.597Z,79.67
2022-10-19T19:41:43.318Z,79.31
2022-10-19T19:44:10.731Z,79.90
2022-10-19T19:46:38.022Z,79.07
2022-10-19T19:49:05.406Z,79.08
2022-10-19T19:51:33.577Z,79.49
2022-10-19T19:54:00.852Z,79.69
2022-10-19T19:56:28.992Z,79.41
2022-10-19T19:58:57.791Z,80.03
2022-10-19T20:01:26.069Z,80.05
2022-10-19T20:03:53.391Z,80.67
2022-10-19T20:06:24.977Z,80.75
2022-10-19T20:08:54.886Z,81.23
2022-10-19T20:11:23.625Z,81.88
2022-10-19T20:13:51.023Z,82.30
2022-10-19T20:16:26.546Z,82.37
2022-10-19T20:19:00.655Z,83.01
2022-10-19T20:21:27.817Z,82.94
2022-10-19T20:23:55.083Z,83.12
2022-10-19T20:26:23.932Z,83.09
2022-10-19T20:28:51.071Z,83.41
2022-10-19T20:31:18.997Z,84.00
2022-10-19T20:33:49.720Z,84.22
2022-10-19T20:36:22.755Z,85.11
2022-10-19T20:38:56.713Z,85.94
2022-10-19T20:41:25.670Z,86.23
2022-10-19T20:43:53.765Z,86.15
2022-10-19T20:46:23.499Z,85.92
2022-10-19T20:48:51.351Z,86.05
2022-10-19T20:51:24.895Z,86.27
2022-10-19T20:53:55.993Z,86.59
2022-10-19T20:56:26.138Z,87.32
2022-10-19T20:58:58.429Z,87.42
2022-10-19T21:01:26.652Z,87.34
2022-10-19T21:03:56.257Z,87.36
2022-10-19T21:06:25.147Z,87.67
2022-10-19T21:08:52.767Z,88.39
2022-10-19T21:11:25.962Z,88.61
2022-10-19T21:13:55.260Z,89.25
2022-10-19T21:16:23.894Z,89.14
2022-10-19T21:18:51.004Z,89.71
2022-10-19T21:21:19.326Z,90.26
2022-10-19T21:23:49.121Z,90.57
2022-10-19T21:26:17.305Z,90.88
2022-10-19T21:28:48.843Z,90.80
2022-10-19T21:31:17.541Z,90.78
2022-10-19T21:33:45.517Z,90.75
2022-10-19T21:36:14.299Z,88.53
2022-10-19T21:38:42.702Z,87.22
2022-10-19T21:41:20.858Z,86.50
2022-10-19T21:43:51.012Z,86.17
2022-10-19T21:46:19.990Z,86.67
2022-10-19T21:48:47.629Z,86.76
2022-10-19T21:51:14.693Z,86.89
2022-10-19T21:53:41.759Z,87.29
2022-10-19T21:56:08.909Z,88.18
2022-10-19T21:58:35.982Z,89.14
2022-10-19T22:01:07.458Z,89.62
2022-10-19T22:03:34.622Z,89.91
2022-10-19T22:06:01.811Z,90.20
2022-10-19T22:08:28.973Z,90.40
2022-10-19T22:10:56.441Z,91.16
2022-10-19T22:13:23.541Z,91.92
2022-10-19T22:15:50.691Z,92.85
2022-10-19T22:18:17.747Z,93.03
2022-10-19T22:20:44.830Z,93.23
2022-10-19T22:23:11.922Z,92.86
2022-10-19T22:25:39.072Z,92.12
2022-10-19T22:28:06.158Z,91.25
2022-10-19T22:30:33.320Z,90.84
2022-10-19T22:33:00.438Z,90.63
2022-10-19T22:35:27.515Z,89.46
2022-10-19T22:37:54.655Z,89.39
2022-10-19T22:40:21.996Z,89.67
2022-10-19T22:42:49.053Z,90.39
2022-10-19T22:45:16.195Z,91.15
2022-10-19T22:47:44.272Z,92.06
2022-10-19T22:50:11.838Z,92.48
2022-10-19T22:52:39.147Z,93.01
2022-10-19T22:55:06.592Z,93.45
2022-10-19T22:57:33.658Z,93.94
2022-10-19T23:00:00.720Z,93.94
2022-10-19T23:02:29.182Z,94.38
2022-10-19T23:04:56.260Z,94.95
2022-10-19T23:07:23.334Z,94.94
2022-10-19T23:09:50.437Z,95.03
2022-10-19T23:12:17.548Z,95.65
2022-10-19T23:14:44.602Z,96.07
2022-10-19T23:17:11.781Z,96.35
2022-10-19T23:19:38.865Z,96.57
2022-10-19T23:22:05.931Z,96.43
2022-10-19T23:24:33.003Z,95.80
2022-10-19T23:27:00.207Z,95.12
2022-10-19T23:29:27.308Z,94.41
2022-10-19T23:31:54.390Z,94.12
2022-10-19T23:34:21.479Z,94.43
2022-10-19T23:36:48.587Z,95.38
2022-10-19T23:39:15.763Z,96.13
2022-10-19T23:41:42.852Z,96.49
2022-10-19T23:44:10.548Z,96.50
2022-10-19T23:46:37.675Z,96.37
2022-10-19T23:49:04.873Z,96.98
2022-10-19T23:51:32.111Z,97.57
2022-10-19T23:53:59.406Z,97.81
2022-10-19T23:56:28.486Z,97.13
2022-10-19T23:58:56.568Z,95.88
